Time;durP1;ratioP1;P1;durP2;ratioP2;P2;SDS_P1;SDS_P2;PMS_P1;PMS_P2;Temp;Humidity;BMP_temperature;BMP_pressure;BME280_temperature;BME280_humidity;BME280_pressure;Samples;Min_cycle;Max_cycle;Signal;HPM_P1;HPM_P2
2022/03/24 07:16:35;;;;;;;;;127.50;111.50;;;;;;;;41424;1281;3014344;-57
2022/03/24 07:19:06;;;;;;;;;105.50;83.50;;;;;;;;27644;1256;3014632;-57
2022/03/24 07:21:37;;;;;;;;;125.50;111.00;23.00;48.70;;;;;;27654;1256;3014295;-57
2022/03/24 07:24:06;;;;;;;;;130.00;110.00;;;;;;;;27659;1255;3014423;-55
2022/03/24 07:26:36;;;;;;;;;128.00;109.00;23.80;52.00;;;;;;27666;1255;3014309;-57
2022/03/24 07:29:06;;;;;;;;;134.50;120.50;;;;;;;;27458;1253;3014694;-62
2022/03/24 07:31:38;;;;;;;;;93.00;76.00;;;;;;;;27727;1253;3014836;-62
2022/03/24 07:34:13;;;;;;;;;126.00;110.00;23.10;44.70;;;;;;27735;1253;3014258;-61
2022/03/24 07:36:46;;;;;;;;;124.50;110.00;;;;;;;;27727;1253;3011380;-62
2022/03/24 07:39:16;;;;;;;;;128.50;109.50;;;;;;;;27714;1253;3014570;-61
2022/03/24 07:41:45;;;;;;;;;92.50;74.50;23.00;44.30;;;;;;27670;1253;3015185;-60
2022/03/24 07:44:15;;;;;;;;;98.00;76.50;;;;;;;;27702;1253;3012117;-63
2022/03/24 07:46:45;;;;;;;;;127.00;108.50;;;;;;;;27719;1253;3011352;-61
2022/03/24 07:49:15;;;;;;;;;131.50;121.50;;;;;;;;27715;1253;3011095;-63
2022/03/24 07:51:48;;;;;;;;;99.50;76.50;;;;;;;;27705;1253;3014463;-61
2022/03/24 07:54:38;;;;;;;;;160.50;157.00;23.40;58.00;;;;;;27680;1253;3013946;-55
2022/03/24 07:57:10;;;;;;;;;129.00;112.50;22.30;57.80;;;;;;27723;1253;3014187;-56
2022/03/24 08:01:46;;;;;;;;;60.25;48.00;22.90;28.80;;;;;;108783;1281;23110;-54
2022/03/24 08:04:13;;;;;;;;;60.75;45.75;22.80;27.40;;;;;;110928;1257;23579;-58
2022/03/24 08:06:42;;;;;;;;;57.00;45.25;22.00;25.20;;;;;;110987;1257;23245;-58
2022/03/24 08:09:09;;;;;;;;;53.67;44.00;22.10;27.50;;;;;;111000;1257;24172;-53
2022/03/24 08:11:56;;;;;;;;;53.00;43.00;22.40;28.20;;;;;;110895;1257;23705;-60
2022/03/24 08:14:23;;;;;;;;;53.00;44.00;22.60;29.20;;;;;;110694;1254;303962;-53
2022/03/24 08:16:50;;;;;;;;;52.00;41.00;22.80;29.30;;;;;;111176;1254;24385;-60
2022/03/24 08:19:17;;;;;;;;;52.75;42.50;22.90;29.60;;;;;;111297;1254;23422;-64
2022/03/24 08:21:44;;;;;;;;;53.00;43.00;23.10;29.70;;;;;;111276;1255;24709;-59
2022/03/24 08:24:12;;;;;;;;;52.00;41.50;23.20;29.80;;;;;;111098;1254;23625;-56
2022/03/24 08:26:39;;;;;;;;;50.33;41.00;23.20;29.90;;;;;;111205;1254;23517;-57
2022/03/24 08:29:06;;;;;;;;;50.67;41.00;23.30;30.00;;;;;;111226;1254;24711;-61
2022/03/24 08:31:33;;;;;;;;;49.00;41.50;23.30;29.90;;;;;;111231;1253;23246;-59
2022/03/24 08:34:00;;;;;;;;;48.25;40.50;23.40;30.10;;;;;;111197;1255;23398;-51
2022/03/24 08:36:27;;;;;;;;;49.00;39.25;23.40;30.20;;;;;;111348;1255;23574;-56
2022/03/24 08:38:56;;;;;;;;;46.00;37.25;23.50;30.50;;;;;;111203;1254;23315;-59
2022/03/24 08:41:27;;;;;;;;;47.00;39.75;23.50;30.50;;;;;;111322;1254;23874;-67
2022/03/24 08:43:54;;;;;;;;;47.33;39.33;23.50;30.20;;;;;;111344;1254;23487;-61
2022/03/24 08:46:24;;;;;;;;;49.50;40.50;23.50;30.10;;;;;;112804;1242;24010;-62
2022/03/24 08:48:53;;;;;;;;;47.75;39.00;23.50;30.00;;;;;;112770;1242;23060;-59
2022/03/24 08:51:22;;;;;;;;;49.00;39.00;23.50;30.40;;;;;;112713;1241;23597;-54
2022/03/24 08:53:49;;;;;;;;;44.67;37.33;23.60;30.80;;;;;;112795;1242;24199;-58
2022/03/24 08:56:19;;;;;;;;;41.50;35.25;23.60;30.30;;;;;;112718;1242;23601;-58
2022/03/24 08:58:46;;;;;;;;;45.00;36.75;23.60;30.30;;;;;;112626;1243;23349;-58
2022/03/24 09:01:16;;;;;;;;;47.00;38.00;23.60;31.10;;;;;;112700;1242;23105;-60
2022/03/24 09:03:43;;;;;;;;;44.50;36.00;23.60;29.40;;;;;;112668;1242;23418;-61
2022/03/24 09:06:10;;;;;;;;;44.00;36.75;23.60;28.60;;;;;;112718;1242;23504;-59
2022/03/24 09:08:37;;;;;;;;;48.75;39.00;23.60;28.10;;;;;;112671;1241;23698;-60
2022/03/24 09:11:04;;;;;;;;;45.75;39.00;23.50;27.90;;;;;;112689;1242;23278;-59
2022/03/24 09:13:31;;;;;;;;;45.00;36.00;23.50;27.90;;;;;;112410;1244;23523;-62
2022/03/24 09:15:57;;;;;;;;;45.00;36.50;23.50;28.90;;;;;;112553;1244;24349;-63
2022/03/24 09:18:24;;;;;;;;;44.67;36.00;23.50;29.50;;;;;;112519;1244;23967;-58
2022/03/24 09:20:54;;;;;;;;;43.75;36.50;23.50;29.00;;;;;;112501;1243;24469;-57
2022/03/24 09:23:24;;;;;;;;;38.25;33.75;23.50;29.00;;;;;;112354;1243;23876;-59
2022/03/24 09:25:51;;;;;;;;;42.00;34.33;23.50;29.10;;;;;;112490;1244;23464;-61
2022/03/24 09:28:18;;;;;;;;;44.67;36.00;23.60;29.00;;;;;;112378;1244;23610;-59
2022/03/24 09:30:46;;;;;;;;;41.75;34.75;23.50;29.60;;;;;;112416;1244;23568;-54
2022/03/24 09:33:13;;;;;;;;;44.75;37.75;23.50;29.70;;;;;;112374;1243;23528;-59
2022/03/24 09:35:43;;;;;;;;;42.50;34.00;23.50;29.60;;;;;;112426;1243;25123;-55
2022/03/24 09:38:10;;;;;;;;;41.00;34.67;23.50;30.10;;;;;;112376;1244;23581;-60
2022/03/24 09:40:39;;;;;;;;;36.00;31.50;23.50;29.50;;;;;;112325;1244;24453;-61
2022/03/24 09:43:07;;;;;;;;;39.75;33.00;23.50;29.40;;;;;;112309;1244;23337;-56
2022/03/24 09:45:37;;;;;;;;;44.00;35.75;23.30;26.00;;;;;;112414;1243;23125;-55
2022/03/24 09:48:06;;;;;;;;;44.25;35.75;23.20;25.00;;;;;;112429;1244;23722;-54
2022/03/24 09:50:34;;;;;;;;;40.33;34.33;23.10;24.40;;;;;;112397;1244;23492;-62
2022/03/24 09:53:01;;;;;;;;;43.00;34.25;23.00;24.40;;;;;;112409;1244;24045;-55
2022/03/24 09:55:32;;;;;;;;;33.50;30.00;22.90;24.70;;;;;;112459;1244;23634;-60
2022/03/24 09:58:00;;;;;;;;;36.00;33.00;22.90;24.20;;;;;;112324;1243;23246;-58
2022/03/24 10:00:27;;;;;;;;;38.00;30.50;22.90;24.30;;;;;;112372;1243;23294;-58
2022/03/24 10:04:21;;;;;;;;;31.75;28.50;22.90;24.10;;;;;;109490;1274;23390;-68
2022/03/24 10:07:02;;;;;;;;;32.50;31.00;20.50;21.30;;;;;;110990;1257;23615;-65
2022/03/24 10:09:35;;;;;;;;;29.75;29.25;19.50;22.10;;;;;;110975;1257;23572;-64
2022/03/24 10:12:05;;;;;;;;;35.00;32.00;18.90;22.70;;;;;;112794;1245;23636;-67
2022/03/24 10:14:33;;;;;;;;;36.25;31.75;18.60;23.00;;;;;;112934;1245;23374;-68
2022/03/24 10:17:08;;;;;;;;;30.00;29.00;18.60;23.20;;;;;;113100;1243;208783;-68
2022/03/24 10:19:37;;;;;;;;;30.25;28.50;18.50;23.00;;;;;;113014;1244;23369;-66
2022/03/24 10:22:11;;;;;;;;;34.75;31.25;18.50;22.00;;;;;;113084;1245;23766;-64
2022/03/24 10:24:46;;;;;;;;;29.25;29.00;18.60;23.30;;;;;;112793;1243;23304;-67
2022/03/24 10:27:27;;;;;;;;;31.00;28.00;18.70;23.20;;;;;;113279;1244;23216;-70
2022/03/24 10:29:56;;;;;;;;;38.00;32.75;18.70;22.20;;;;;;113133;1244;23682;-67
2022/03/24 10:32:31;;;;;;;;;40.25;33.50;18.70;21.80;;;;;;113321;1242;23416;-69
2022/03/24 10:35:08;;;;;;;;;39.00;35.00;18.60;22.10;;;;;;113242;1242;23827;-69
2022/03/24 10:37:35;;;;;;;;;37.25;32.75;18.70;22.20;;;;;;113285;1242;23226;-66
2022/03/24 10:40:10;;;;;;;;;43.50;35.25;18.70;21.00;;;;;;113299;1241;23553;-67
2022/03/24 10:42:39;;;;;;;;;47.00;36.00;18.80;21.30;;;;;;112799;1244;23997;-71
2022/03/24 10:45:24;;;;;;;;;43.00;35.00;18.80;21.80;;;;;;113108;1243;23252;-68
2022/03/24 10:47:55;;;;;;;;;36.75;32.00;18.80;21.30;;;;;;113059;1242;23149;-73
2022/03/24 10:50:42;;;;;;;;;36.00;32.00;19.00;22.30;;;;;;112953;1242;23217;-71
2022/03/24 10:53:16;;;;;;;;;38.25;34.75;19.10;21.50;;;;;;113040;1243;23283;-68
2022/03/24 10:56:06;;;;;;;;;37.67;32.00;19.20;21.50;;;;;;112717;1244;24249;-68
2022/03/24 10:58:39;;;;;;;;;36.50;34.00;19.20;21.50;;;;;;112895;1244;23309;-72
2022/03/24 11:02:54;;;;;;;;;36.25;33.00;19.50;21.10;;;;;;109191;1280;23574;-69
2022/03/24 11:05:25;;;;;;;;;39.33;32.67;19.60;22.30;;;;;;111864;1255;23602;-70
2022/03/24 11:07:56;;;;;;;;;48.75;24.00;19.90;21.30;;;;;;111794;1254;23553;-67
2022/03/24 11:10:24;;;;;;;;;35.33;21.67;20.30;20.90;;;;;;111595;1255;24394;-66
2022/03/24 11:12:54;;;;;;;;;34.50;22.00;24.20;21.40;;;;;;111738;1253;23356;-72
2022/03/24 11:15:22;;;;;;;;;35.25;22.00;28.60;19.00;;;;;;111695;1255;283251;-73
2022/03/24 11:17:49;;;;;;;;;48.75;23.25;32.40;18.20;;;;;;111831;1253;24930;-75
2022/03/24 11:20:37;;;;;;;;;43.00;20.75;35.80;17.70;;;;;;111962;1253;24021;-68
2022/03/24 11:23:35;;;;;;;;;40.33;18.33;37.60;17.00;;;;;;112574;1251;23204;-72
2022/03/24 11:26:03;;;;;;;;;39.75;19.75;38.40;16.60;;;;;;112388;1252;23463;-70
2022/03/24 11:28:34;;;;;;;;;45.25;24.25;39.10;16.90;;;;;;112025;1253;23642;-67
2022/03/24 11:31:11;;;;;;;;;46.00;25.00;39.50;16.10;;;;;;112060;1253;23287;-68
2022/03/24 11:33:58;;;;;;;;;45.50;23.25;40.30;16.60;;;;;;112211;1252;24732;-67
2022/03/24 11:36:25;;;;;;;;;47.67;27.67;41.40;16.30;;;;;;111974;1253;23537;-71
2022/03/24 11:38:54;;;;;;;;;41.33;21.00;42.20;15.80;;;;;;112030;1253;23649;-70
2022/03/24 11:41:47;;;;;;;;;49.25;21.25;42.00;15.90;;;;;;112629;1245;23779;-69
2022/03/24 11:44:21;;;;;;;;;44.00;19.25;42.50;16.00;;;;;;112892;1244;23661;-68
2022/03/24 11:46:53;;;;;;;;;43.00;21.33;45.10;16.50;;;;;;112992;1244;23338;-67
2022/03/24 11:49:27;;;;;;;;;34.75;22.50;44.10;16.20;;;;;;112626;1244;24108;-67
2022/03/24 11:51:58;;;;;;;;;29.75;28.75;44.10;16.00;;;;;;113050;1245;23252;-75
2022/03/24 11:54:36;;;;;;;;;34.75;31.75;41.00;15.60;;;;;;112856;1244;23272;-78
2022/03/24 12:00:14;;;;;;;;;48.00;45.00;38.00;17.20;;;;;;34634;1281;3021368;-81
2022/03/24 12:02:53;;;;;;;;;23.50;16.50;38.50;28.20;;;;;;28176;1243;3014471;-74
2022/03/24 12:05:55;;;;;;;;;26.50;11.50;37.80;20.80;;;;;;28141;1244;3011267;-74
2022/03/24 12:08:31;;;;;;;;;26.00;15.50;;;;;;;;28192;1243;3014282;-77
2022/03/24 12:11:20;;;;;;;;;47.50;41.00;;;;;;;;28178;1242;3014254;-76
2022/03/24 12:13:55;;;;;;;;;32.00;15.00;;;;;;;;28062;1241;3014138;-76
2022/03/24 12:16:25;;;;;;;;;29.00;28.50;;;;;;;;28251;1241;3014016;-75
2022/03/24 12:18:57;;;;;;;;;54.50;41.50;38.80;37.80;;;;;;28337;1241;3014330;-73
2022/03/24 12:21:31;;;;;;;;;23.50;13.50;38.50;16.40;;;;;;28340;1243;3014827;-78
2022/03/24 12:24:18;;;;;;;;;33.00;9.50;39.80;16.40;;;;;;28523;1241;3014562;-85
2022/03/24 12:26:51;;;;;;;;;19.50;9.50;;;;;;;;28310;1241;3014541;-76
2022/03/24 12:29:22;;;;;;;;;58.00;44.50;38.50;25.30;;;;;;28388;1241;3011829;-73
2022/03/24 12:32:11;;;;;;;;;57.00;51.00;;;;;;;;28371;1243;3011041;-75
2022/03/24 12:34:47;;;;;;;;;25.50;8.50;35.40;22.70;;;;;;28401;1242;3010946;-72
2022/03/24 12:37:25;;;;;;;;;57.50;8.50;;;;;;;;28321;1241;3014809;-75
2022/03/24 12:40:07;;;;;;;;;62.50;19.50;35.40;35.90;;;;;;28321;1242;3014128;-78
2022/03/24 12:42:45;;;;;;;;;36.50;12.00;;;;;;;;28320;1242;3014508;-76
2022/03/24 12:45:37;;;;;;;;;21.50;9.50;38.40;16.60;;;;;;28339;1241;3014186;-78
2022/03/24 12:48:14;;;;;;;;;51.00;31.50;;;;;;;;28324;1242;3014020;-72
2022/03/24 12:50:43;;;;;;;;;27.00;7.00;;;;;;;;28296;1241;3014310;-71
2022/03/24 12:53:12;;;;;;;;;28.00;11.00;;;;;;;;28302;1240;3013950;-74
2022/03/24 12:55:44;;;;;;;;;24.00;13.00;;;;;;;;28253;1241;3013910;-72
2022/03/24 12:58:16;;;;;;;;;18.00;10.50;;;;;;;;28219;1241;3014363;-68
2022/03/24 13:00:47;;;;;;;;;74.50;48.00;;;;;;;;28277;1243;3011869;-72
2022/03/24 13:03:19;;;;;;;;;62.00;47.00;;;;;;;;28199;1241;3014708;-70
2022/03/24 13:05:53;;;;;;;;;24.50;10.00;;;;;;;;28257;1241;3011604;-69
2022/03/24 13:08:24;;;;;;;;;24.50;10.50;;;;;;;;28237;1240;3014244;-69
2022/03/24 13:10:55;;;;;;;;;30.50;17.00;35.50;25.10;;;;;;28229;1240;3014309;-73
2022/03/24 13:13:29;;;;;;;;;49.50;20.00;30.40;25.30;;;;;;28272;1241;3014275;-71
2022/03/24 13:15:59;;;;;;;;;74.00;53.50;;;;;;;;28275;1241;3012027;-70
2022/03/24 13:18:28;;;;;;;;;19.00;8.00;32.10;19.40;;;;;;28272;1243;3013943;-70
2022/03/24 13:20:57;;;;;;;;;25.00;9.00;33.90;45.20;;;;;;28437;1242;3013939;-71
2022/03/24 13:23:28;;;;;;;;;27.00;0.00;;;;;;;;28400;1241;3014344;-72
2022/03/24 13:25:57;;;;;;;;;56.50;38.00;;;;;;;;28341;1241;3011365;-71
2022/03/24 13:28:31;;;;;;;;;69.00;46.00;;;;;;;;28338;1240;3011092;-74
2022/03/24 13:31:00;;;;;;;;;28.50;10.50;;;;;;;;28217;1242;3011117;-70
2022/03/24 13:33:29;;;;;;;;;22.50;9.00;;;;;;;;28279;1243;3014069;-74
2022/03/24 13:53:29;;;;;;;;;34.33;32.00;27.10;18.70;;;;;;110392;1274;23335;-76
2022/03/24 13:56:12;;;;;;;;;38.33;31.33;24.60;18.80;;;;;;112185;1257;23435;-73
2022/03/24 13:58:42;;;;;;;;;39.00;34.33;22.80;19.90;;;;;;112569;1255;23356;-76
2022/03/24 14:01:16;;;;;;;;;41.33;31.33;21.00;21.60;;;;;;112148;1254;23354;-78
2022/03/24 14:03:52;;;;;;;;;42.33;34.67;20.70;21.30;;;;;;112898;1256;23688;-77
2022/03/24 14:06:22;;;;;;;;;42.50;34.00;20.80;21.10;;;;;;111738;1253;189159;-76
2022/03/24 14:08:56;;;;;;;;;33.00;25.00;21.00;21.20;;;;;;111793;1252;23449;-78
2022/03/24 14:11:30;;;;;;;;;35.00;26.67;20.90;21.20;;;;;;111707;1251;24985;-74
2022/03/24 14:14:13;;;;;;;;;43.00;32.50;21.00;21.00;;;;;;111733;1252;23272;-74
2022/03/24 14:16:43;;;;;;;;;44.33;31.33;20.90;21.10;;;;;;111813;1251;23635;-77
2022/03/24 14:19:26;;;;;;;;;43.50;36.50;20.70;21.10;;;;;;111331;1254;23517;-73
2022/03/24 14:22:05;;;;;;;;;46.50;35.00;20.60;21.60;;;;;;111356;1253;23237;-77
2022/03/24 14:24:46;;;;;;;;;49.25;35.25;20.40;21.50;;;;;;111354;1254;23117;-73
2022/03/24 14:27:20;;;;;;;;;49.33;36.33;20.00;21.90;;;;;;111507;1254;23261;-74
2022/03/24 14:30:11;;;;;;;;;54.75;39.75;19.90;21.90;;;;;;111395;1254;23395;-73
2022/03/24 14:32:41;;;;;;;;;43.75;30.75;19.70;22.30;;;;;;111994;1248;23792;-75
2022/03/24 14:35:16;;;;;;;;;40.33;34.33;19.20;22.80;;;;;;112102;1247;23645;-75
2022/03/24 14:37:51;;;;;;;;;36.50;24.50;19.10;23.10;;;;;;111983;1247;23225;-73
2022/03/24 14:40:34;;;;;;;;;42.50;37.00;18.80;23.50;;;;;;112010;1246;23175;-75
2022/03/24 14:43:04;;;;;;;;;44.00;36.00;18.50;24.00;;;;;;111955;1246;23622;-73
2022/03/24 14:45:36;;;;;;;;;33.00;30.50;18.30;23.70;;;;;;111984;1247;23564;-75
2022/03/24 14:48:05;;;;;;;;;45.00;37.67;18.00;24.10;;;;;;111975;1246;24388;-74
2022/03/24 14:50:33;;;;;;;;;6.00;2.25;17.90;24.10;;;;;;111961;1246;23477;-75
2022/03/24 14:53:01;;;;;;;;;47.00;35.33;17.70;24.30;;;;;;111761;1247;23661;-73
2022/03/24 14:55:29;;;;;;;;;51.50;40.75;17.70;24.40;;;;;;111977;1247;24070;-74
2022/03/24 14:57:56;;;;;;;;;54.75;35.25;17.60;24.40;;;;;;111952;1247;24392;-75
2022/03/24 15:00:23;;;;;;;;;49.75;37.00;17.50;24.50;;;;;;111807;1248;23578;-74
2022/03/24 15:02:51;;;;;;;;;44.75;38.50;17.40;24.90;;;;;;112005;1246;23361;-74
2022/03/24 15:05:18;;;;;;;;;42.50;33.75;17.40;24.60;;;;;;112045;1247;23801;-73
2022/03/24 15:07:47;;;;;;;;;34.67;28.33;17.30;24.60;;;;;;111929;1247;23539;-75
2022/03/24 15:10:16;;;;;;;;;50.00;37.00;17.20;24.30;;;;;;112073;1248;23602;-76
2022/03/24 15:12:43;;;;;;;;;41.67;36.00;17.20;25.00;;;;;;112079;1248;23602;-75
2022/03/24 15:17:59;;;;;;;;;41.25;36.50;17.00;25.20;;;;;;111952;1248;23950;-75
2022/03/24 15:20:30;;;;;;;;;46.67;30.67;16.90;25.40;;;;;;111888;1248;23261;-75
2022/03/24 15:22:57;;;;;;;;;42.50;31.00;16.90;25.60;;;;;;112059;1247;23894;-76
2022/03/24 15:25:25;;;;;;;;;49.25;39.50;16.80;25.60;;;;;;112017;1247;23490;-73
2022/03/24 15:27:54;;;;;;;;;45.67;36.33;16.80;25.60;;;;;;111670;1249;23624;-75
2022/03/24 15:30:22;;;;;;;;;51.50;38.00;16.70;25.40;;;;;;111979;1246;23611;-75
2022/03/24 15:32:49;;;;;;;;;48.25;38.75;16.60;25.90;;;;;;111993;1246;24004;-77
2022/03/24 15:35:16;;;;;;;;;45.50;33.50;16.50;26.20;;;;;;111960;1247;23586;-75
2022/03/24 15:37:43;;;;;;;;;21.75;20.25;16.50;26.10;;;;;;111969;1246;23301;-74
2022/03/24 15:40:11;;;;;;;;;29.50;29.50;16.40;25.90;;;;;;111788;1248;23541;-73
2022/03/24 15:42:41;;;;;;;;;45.25;35.75;16.30;26.00;;;;;;112018;1248;23387;-73
2022/03/24 15:45:11;;;;;;;;;40.33;30.67;16.20;25.90;;;;;;111958;1247;23394;-73
2022/03/24 15:47:40;;;;;;;;;36.50;31.00;16.20;25.80;;;;;;111949;1247;23480;-73
2022/03/24 15:50:10;;;;;;;;;35.25;31.00;16.10;25.90;;;;;;112013;1247;23428;-74
2022/03/24 15:52:39;;;;;;;;;40.25;34.00;16.10;25.50;;;;;;112201;1247;23515;-75
2022/03/24 15:55:10;;;;;;;;;39.25;32.25;16.00;25.90;;;;;;112545;1243;23644;-74
2022/03/24 15:57:42;;;;;;;;;43.50;34.75;15.90;26.10;;;;;;112821;1242;23347;-74
2022/03/24 16:00:10;;;;;;;;;34.67;29.67;15.90;26.10;;;;;;112806;1242;23637;-74
2022/03/24 16:02:38;;;;;;;;;51.25;38.25;15.90;26.20;;;;;;112775;1243;24729;-75
2022/03/24 16:05:09;;;;;;;;;41.00;23.67;15.80;26.20;;;;;;112762;1242;23926;-76
2022/03/24 16:07:37;;;;;;;;;56.75;34.00;15.80;26.40;;;;;;112796;1243;23766;-73
2022/03/24 16:10:05;;;;;;;;;46.25;36.50;15.70;26.70;;;;;;112816;1241;23716;-73
2022/03/24 16:12:33;;;;;;;;;52.00;37.25;15.70;26.90;;;;;;112829;1241;23709;-73
2022/03/24 16:15:00;;;;;;;;;52.75;39.50;15.60;27.00;;;;;;112797;1241;23250;-77
2022/03/24 16:17:27;;;;;;;;;41.25;34.75;15.50;27.20;;;;;;112510;1242;23644;-75
2022/03/24 16:19:55;;;;;;;;;49.75;37.25;15.50;27.10;;;;;;112854;1242;23175;-75
2022/03/24 16:22:22;;;;;;;;;48.25;38.75;15.50;27.30;;;;;;112891;1242;23508;-76
2022/03/24 16:24:49;;;;;;;;;38.50;31.00;15.50;27.40;;;;;;112527;1242;23534;-75
2022/03/24 16:27:16;;;;;;;;;48.00;34.50;15.40;27.50;;;;;;112488;1242;24161;-75
2022/03/24 16:29:43;;;;;;;;;57.25;40.00;15.30;27.60;;;;;;112855;1241;23194;-73
2022/03/24 16:32:10;;;;;;;;;42.25;32.25;15.30;27.80;;;;;;112881;1241;23545;-76
2022/03/24 16:34:37;;;;;;;;;48.33;40.00;15.30;27.80;;;;;;112874;1240;23917;-74
2022/03/24 16:37:07;;;;;;;;;50.00;39.75;15.20;27.90;;;;;;112067;1245;24533;-75
2022/03/24 16:39:34;;;;;;;;;44.50;39.00;15.20;28.30;;;;;;112872;1241;24156;-74
2022/03/24 16:42:02;;;;;;;;;49.00;36.00;15.20;28.30;;;;;;112857;1240;23636;-76
2022/03/24 16:44:30;;;;;;;;;62.00;42.00;15.00;28.90;;;;;;112522;1241;23316;-73
2022/03/24 16:46:56;;;;;;;;;27.00;19.50;15.00;28.50;;;;;;112536;1242;23412;-76
2022/03/24 16:49:23;;;;;;;;;51.25;35.75;14.90;28.40;;;;;;112882;1242;24054;-74
2022/03/24 16:51:52;;;;;;;;;33.67;26.33;14.90;28.70;;;;;;112492;1242;23354;-75
2022/03/24 16:54:19;;;;;;;;;52.25;33.25;14.90;28.60;;;;;;112878;1241;23662;-76
2022/03/24 16:56:46;;;;;;;;;46.75;32.75;14.90;28.50;;;;;;112517;1242;24219;-74
2022/03/24 16:59:13;;;;;;;;;41.75;33.75;14.80;28.10;;;;;;112863;1241;23233;-73
2022/03/24 17:01:40;;;;;;;;;45.33;31.67;14.80;28.40;;;;;;112851;1241;23551;-73
2022/03/24 17:04:07;;;;;;;;;44.25;26.00;14.70;28.20;;;;;;112861;1242;23416;-75
2022/03/24 17:06:37;;;;;;;;;34.50;18.25;14.60;28.30;;;;;;112518;1242;23387;-73
2022/03/24 17:09:05;;;;;;;;;36.25;29.25;14.70;28.20;;;;;;112891;1240;23578;-73
2022/03/24 17:11:31;;;;;;;;;41.75;32.25;14.60;28.10;;;;;;112892;1241;23270;-74
2022/03/24 17:13:59;;;;;;;;;32.00;21.00;14.50;28.20;;;;;;112885;1242;23382;-73
2022/03/24 17:16:27;;;;;;;;;24.25;23.25;14.50;28.20;;;;;;112933;1241;23976;-75
2022/03/24 17:20:09;;;;;;;;;35.25;33.50;14.60;40.80;;;;;;108626;1282;23634;-49
2022/03/24 17:22:38;;;;;;;;;36.50;30.50;16.20;38.10;;;;;;111091;1255;23819;-49
2022/03/24 17:25:05;;;;;;;;;41.75;30.75;17.60;37.20;;;;;;110881;1256;23385;-46
2022/03/24 17:27:37;;;;;;;;;35.67;30.00;18.70;37.00;;;;;;110954;1256;23429;-48
2022/03/24 17:30:06;;;;;;;;;38.33;26.67;19.60;35.30;;;;;;110946;1255;23710;-49
2022/03/24 17:32:33;;;;;;;;;31.67;28.33;20.20;35.40;;;;;;110693;1256;418840;-54
2022/03/24 17:35:00;;;;;;;;;31.67;26.67;20.80;35.20;;;;;;111129;1254;24455;-53
2022/03/24 17:37:26;;;;;;;;;37.00;32.33;21.20;34.30;;;;;;111201;1254;23452;-52
2022/03/24 17:39:53;;;;;;;;;36.67;28.00;21.50;33.50;;;;;;111178;1254;23413;-50
2022/03/24 17:42:21;;;;;;;;;33.67;27.33;21.80;33.50;;;;;;111168;1254;23599;-55
2022/03/24 17:44:49;;;;;;;;;36.67;32.33;22.00;33.50;;;;;;111190;1253;24266;-55
2022/03/24 17:47:20;;;;;;;;;39.00;29.00;22.20;33.90;;;;;;111084;1254;23947;-51
2022/03/24 17:49:46;;;;;;;;;36.67;30.00;22.30;33.30;;;;;;111075;1255;23583;-51
2022/03/24 17:52:13;;;;;;;;;35.33;24.33;22.40;32.10;;;;;;111237;1254;23343;-47
2022/03/24 17:54:40;;;;;;;;;30.00;25.00;22.50;34.00;;;;;;111458;1254;24412;-49
2022/03/24 17:57:08;;;;;;;;;35.67;27.33;22.70;33.80;;;;;;111359;1254;23152;-48
2022/03/24 17:59:37;;;;;;;;;30.50;25.50;22.80;33.80;;;;;;111182;1252;23443;-49
2022/03/24 18:02:04;;;;;;;;;25.50;24.50;22.90;33.60;;;;;;111255;1253;23616;-51
2022/03/24 18:04:31;;;;;;;;;22.50;22.50;23.00;33.60;;;;;;111178;1254;23702;-51
2022/03/24 18:06:58;;;;;;;;;31.67;27.33;23.00;33.10;;;;;;111221;1255;23158;-48
2022/03/24 18:09:25;;;;;;;;;24.33;23.67;23.10;32.70;;;;;;111424;1254;23624;-47
2022/03/24 18:11:53;;;;;;;;;29.50;25.00;23.20;33.20;;;;;;111183;1254;23429;-48
2022/03/24 18:14:20;;;;;;;;;26.33;24.33;23.20;33.40;;;;;;111293;1253;23384;-47
2022/03/24 18:16:47;;;;;;;;;34.33;25.33;23.30;33.30;;;;;;111587;1254;23447;-47
2022/03/24 18:19:13;;;;;;;;;30.00;27.33;23.30;33.30;;;;;;111509;1253;23365;-36
2022/03/24 18:21:40;;;;;;;;;24.33;22.00;23.50;32.80;;;;;;111171;1254;24744;-36
2022/03/24 18:24:07;;;;;;;;;28.67;25.33;23.60;31.20;;;;;;111170;1254;23160;-35
2022/03/24 18:26:34;;;;;;;;;32.33;25.33;23.70;30.70;;;;;;111221;1254;23287;-36
2022/03/24 18:29:01;;;;;;;;;29.67;23.00;23.80;31.50;;;;;;111147;1255;23486;-37
2022/03/24 18:31:28;;;;;;;;;25.00;24.00;23.90;31.00;;;;;;111199;1255;24050;-37
2022/03/24 18:33:55;;;;;;;;;25.00;22.00;23.90;31.20;;;;;;111296;1254;23315;-37
2022/03/24 18:36:22;;;;;;;;;23.67;20.67;24.00;31.00;;;;;;111303;1253;23622;-37
2022/03/24 18:38:49;;;;;;;;;27.00;22.67;24.10;32.00;;;;;;111288;1254;23312;-36
2022/03/24 18:41:17;;;;;;;;;28.33;24.33;24.10;32.20;;;;;;111443;1254;23376;-37
2022/03/24 18:43:44;;;;;;;;;22.00;17.33;24.10;31.30;;;;;;111231;1252;23507;-36
2022/03/24 18:46:12;;;;;;;;;26.00;20.00;24.20;31.20;;;;;;111158;1254;23310;-36
2022/03/24 18:48:39;;;;;;;;;18.33;13.67;24.20;31.20;;;;;;111230;1253;23423;-36
2022/03/24 18:51:08;;;;;;;;;20.00;20.00;24.20;31.20;;;;;;111217;1254;23576;-37
2022/03/24 18:53:35;;;;;;;;;26.33;19.67;24.20;31.30;;;;;;111222;1252;23752;-37
2022/03/24 18:56:03;;;;;;;;;22.33;19.67;24.20;31.20;;;;;;111194;1254;23410;-39
2022/03/24 18:58:31;;;;;;;;;19.67;17.00;24.20;31.20;;;;;;111204;1254;23295;-35
2022/03/24 19:00:58;;;;;;;;;16.00;16.00;24.20;31.30;;;;;;111255;1254;23486;-37
2022/03/24 19:03:25;;;;;;;;;22.00;19.33;24.20;31.30;;;;;;111165;1254;23360;-36
2022/03/24 19:05:52;;;;;;;;;23.00;16.33;24.20;31.10;;;;;;111174;1254;23532;-36
2022/03/24 19:08:19;;;;;;;;;19.67;16.00;24.20;31.10;;;;;;111223;1254;23779;-38
2022/03/24 19:10:45;;;;;;;;;20.67;18.33;24.20;31.10;;;;;;111205;1253;23800;-37
2022/03/24 19:13:13;;;;;;;;;20.67;19.00;24.20;31.10;;;;;;111192;1254;24522;-35
2022/03/24 19:15:40;;;;;;;;;22.33;18.67;24.20;30.60;;;;;;111322;1254;23380;-36
2022/03/24 19:18:09;;;;;;;;;20.00;15.00;24.20;31.20;;;;;;111372;1254;23420;-38
2022/03/24 19:20:36;;;;;;;;;22.50;17.50;24.20;31.40;;;;;;111199;1253;23939;-38
2022/03/24 19:23:03;;;;;;;;;15.67;15.00;24.10;31.20;;;;;;111203;1254;23629;-35
2022/03/24 19:25:30;;;;;;;;;18.33;15.00;24.20;31.10;;;;;;111223;1254;24330;-36
2022/03/24 19:27:57;;;;;;;;;17.00;16.33;24.20;31.40;;;;;;111182;1253;24172;-37
2022/03/24 19:30:26;;;;;;;;;18.50;16.00;24.10;31.10;;;;;;111177;1253;24361;-36
2022/03/24 19:32:54;;;;;;;;;21.67;17.00;24.10;31.00;;;;;;111257;1253;23818;-35
2022/03/24 19:35:21;;;;;;;;;22.67;16.00;24.10;31.00;;;;;;111201;1252;24390;-36
2022/03/24 19:37:50;;;;;;;;;17.33;15.67;24.10;31.00;;;;;;111195;1253;23561;-36
2022/03/24 19:40:19;;;;;;;;;21.75;18.75;24.10;31.10;;;;;;111382;1254;23414;-37
2022/03/24 19:42:48;;;;;;;;;19.50;13.50;24.10;31.10;;;;;;111360;1253;23488;-36
2022/03/24 19:45:18;;;;;;;;;19.67;17.33;24.10;31.10;;;;;;111363;1254;24314;-35
2022/03/24 19:47:45;;;;;;;;;16.00;14.67;24.10;31.20;;;;;;111274;1254;23137;-38
2022/03/24 19:50:12;;;;;;;;;19.67;18.00;24.10;31.20;;;;;;111297;1254;23334;-37
2022/03/24 19:52:39;;;;;;;;;18.67;18.00;24.10;31.20;;;;;;111372;1254;23536;-39
2022/03/24 19:55:06;;;;;;;;;20.50;17.50;24.10;31.20;;;;;;111309;1254;23264;-38
2022/03/24 19:57:33;;;;;;;;;16.33;15.33;24.10;31.40;;;;;;111244;1254;23610;-36
2022/03/24 20:00:00;;;;;;;;;16.67;15.00;24.00;31.00;;;;;;111206;1254;23525;-36
2022/03/24 20:02:27;;;;;;;;;15.67;12.33;24.00;31.30;;;;;;111220;1254;24054;-37
2022/03/24 20:04:55;;;;;;;;;15.00;13.33;24.00;31.10;;;;;;111189;1254;23515;-37
2022/03/24 20:07:22;;;;;;;;;20.67;17.00;24.00;31.10;;;;;;111169;1254;23266;-36
2022/03/24 20:09:49;;;;;;;;;17.33;14.00;24.00;31.10;;;;;;111221;1254;23287;-38
2022/03/24 20:12:16;;;;;;;;;15.00;13.50;24.00;31.20;;;;;;111224;1254;23445;-36
2022/03/24 20:14:45;;;;;;;;;18.67;14.00;24.00;31.30;;;;;;111189;1253;24103;-37
2022/03/24 20:17:12;;;;;;;;;18.00;15.00;24.00;31.30;;;;;;112227;1245;23387;-36
2022/03/24 20:19:39;;;;;;;;;17.00;16.33;24.00;31.50;;;;;;112179;1245;23409;-36
2022/03/24 20:22:06;;;;;;;;;15.67;15.00;23.90;31.50;;;;;;112204;1245;23348;-37
2022/03/24 20:24:34;;;;;;;;;16.67;11.33;24.00;30.80;;;;;;112185;1246;23438;-37
2022/03/24 20:27:02;;;;;;;;;19.33;16.00;23.90;31.20;;;;;;112126;1245;23596;-37